Terminal Aerodrome Forecast
Issued by NWS

Home | Current Version | Previous Version | Text Only | Print | Product List | Glossary On
Versions: 1 2 3 4 5 6 7 8 9 10 11 12 13 14 15 16 17 18 19 20 21 22 23
258
FTUS41 KBGM 041736
TAFRME
TAF
KRME 041736Z 0418/0518 29005KT P6SM SCT030
     FM042300 VRB03KT P6SM SCT200
     FM050700 12006KT P6SM -SN OVC045
     FM050900 11006KT 1SM -SN OVC025
     FM051300 12007KT 5SM -SN OVC015
     FM051600 23006KT P6SM -SN OVC015=

USA.gov is the U.S. government's official web portal to all federal, state and local government web resources and services.